createdAt,value
2023-05-15T00:00:16.401Z,73.23
2023-05-15T00:02:44.970Z,73.13
2023-05-15T00:05:14.077Z,72.95
2023-05-15T00:07:41.587Z,73.24
2023-05-15T00:10:08.977Z,73.23
2023-05-15T00:12:36.915Z,72.93
2023-05-15T00:15:04.541Z,73.27
2023-05-15T00:17:31.634Z,73.21
2023-05-15T00:19:59.910Z,73.25
2023-05-15T00:22:26.946Z,73.67
2023-05-15T00:24:53.922Z,74.29
2023-05-15T00:27:20.835Z,74.25
2023-05-15T00:29:47.683Z,74.03
2023-05-15T00:32:14.720Z,74.59
2023-05-15T00:34:41.678Z,74.69
2023-05-15T00:37:08.583Z,74.60
2023-05-15T00:39:36.958Z,75.15
2023-05-15T00:42:05.387Z,76.69
2023-05-15T00:44:32.665Z,77.17
2023-05-15T00:47:02.464Z,76.57
2023-05-15T00:49:30.223Z,76.60
2023-05-15T00:51:58.232Z,76.10
2023-05-15T00:54:25.687Z,76.22
2023-05-15T00:56:56.004Z,76.19
2023-05-15T00:59:26.241Z,77.45
2023-05-15T01:01:54.307Z,77.46
2023-05-15T01:04:21.861Z,77.52
2023-05-15T01:06:54.097Z,77.27
2023-05-15T01:09:24.820Z,77.96
2023-05-15T01:11:55.260Z,78.99
2023-05-15T01:14:22.208Z,79.86
2023-05-15T01:16:49.476Z,79.88
2023-05-15T01:19:16.558Z,79.67
2023-05-15T01:22:18.973Z,79.75
2023-05-15T01:25:18.656Z,80.31
2023-05-15T01:27:50.926Z,80.36
2023-05-15T01:30:23.928Z,79.96
2023-05-15T01:33:12.634Z,79.53
2023-05-15T01:36:07.181Z,79.67
2023-05-15T01:38:56.958Z,80.04
2023-05-15T01:41:33.264Z,81.10
2023-05-15T01:44:05.704Z,83.02
2023-05-15T01:46:38.607Z,82.75
2023-05-15T01:49:09.529Z,83.18
2023-05-15T01:51:39.329Z,82.88
2023-05-15T01:54:09.076Z,82.54
2023-05-15T01:56:37.090Z,82.53
2023-05-15T01:59:05.470Z,82.91
2023-05-15T02:01:33.455Z,84.13
2023-05-15T02:04:02.870Z,84.62
2023-05-15T02:06:32.396Z,84.67
2023-05-15T02:09:02.890Z,84.24
2023-05-15T02:11:30.855Z,85.34
2023-05-15T02:13:59.338Z,85.15
2023-05-15T02:16:26.309Z,85.26
2023-05-15T02:18:53.456Z,85.75
2023-05-15T02:21:20.996Z,86.97
2023-05-15T02:23:47.834Z,88.14
2023-05-15T02:26:17.916Z,88.87
2023-05-15T02:28:55.087Z,89.30
2023-05-15T02:31:38.304Z,89.97
2023-05-15T02:34:05.348Z,90.52
2023-05-15T02:36:36.993Z,91.02
2023-05-15T02:39:08.185Z,92.04
2023-05-15T02:41:37.244Z,92.52
2023-05-15T02:44:04.386Z,92.57
2023-05-15T02:46:32.551Z,92.05
2023-05-15T02:48:59.900Z,92.03
2023-05-15T02:51:27.445Z,91.59
2023-05-15T02:53:55.787Z,91.58
2023-05-15T02:56:22.831Z,91.34
2023-05-15T02:58:50.239Z,91.32
2023-05-15T03:01:17.344Z,91.33
2023-05-15T03:03:44.497Z,91.93
2023-05-15T03:06:11.315Z,91.65
2023-05-15T03:08:38.382Z,92.12
2023-05-15T03:11:05.596Z,92.43
2023-05-15T03:13:32.381Z,92.36
2023-05-15T03:15:59.616Z,91.65
2023-05-15T03:18:26.544Z,91.37
2023-05-15T03:20:53.837Z,91.75
2023-05-15T03:23:20.878Z,91.63
2023-05-15T03:25:48.173Z,90.05
2023-05-15T03:28:14.976Z,89.67
2023-05-15T03:30:45.281Z,89.37
2023-05-15T03:33:12.738Z,89.15
2023-05-15T03:35:39.832Z,88.40
2023-05-15T03:38:07.324Z,88.22
2023-05-15T03:40:34.194Z,87.78
2023-05-15T03:43:01.463Z,87.43
2023-05-15T03:45:28.778Z,88.39
2023-05-15T03:47:55.827Z,88.58
2023-05-15T03:50:23.600Z,89.29
2023-05-15T03:52:52.007Z,88.26
2023-05-15T03:55:20.315Z,88.04
2023-05-15T03:57:47.468Z,87.68
2023-05-15T04:00:15.506Z,88.26
2023-05-15T04:02:43.355Z,87.89
2023-05-15T04:05:10.863Z,88.25
2023-05-15T04:07:39.019Z,88.67
2023-05-15T04:10:07.068Z,89.47
2023-05-15T04:12:35.660Z,89.81
2023-05-15T04:15:22.473Z,90.19
2023-05-15T04:17:51.792Z,90.67
2023-05-15T04:20:22.000Z,90.60
2023-05-15T04:22:49.504Z,91.18
2023-05-15T04:25:18.201Z,90.73
2023-05-15T04:27:45.236Z,89.33
2023-05-15T04:30:13.316Z,88.10
2023-05-15T04:32:41.263Z,86.91
2023-05-15T04:35:10.868Z,86.63
2023-05-15T04:37:41.669Z,86.66
2023-05-15T04:40:10.393Z,84.49
2023-05-15T04:42:39.125Z,83.36
2023-05-15T04:45:08.167Z,81.33
2023-05-15T04:47:36.042Z,80.32
2023-05-15T04:50:03.537Z,80.43
2023-05-15T04:52:30.547Z,79.32
2023-05-15T04:54:57.679Z,79.56
2023-05-15T04:57:26.073Z,77.96
2023-05-15T04:59:53.923Z,77.68
2023-05-15T05:02:22.702Z,79.42
2023-05-15T05:04:50.232Z,79.55
2023-05-15T05:07:17.318Z,79.71
2023-05-15T05:09:45.017Z,77.77
2023-05-15T05:12:12.023Z,76.76
2023-05-15T05:14:44.767Z,75.41
2023-05-15T05:17:12.073Z,74.97
2023-05-15T05:19:39.040Z,74.63
2023-05-15T05:22:06.232Z,74.01
2023-05-15T05:24:33.349Z,72.90
2023-05-15T05:27:00.568Z,72.75
2023-05-15T05:29:27.640Z,71.80
2023-05-15T05:31:54.905Z,71.37
2023-05-15T05:34:23.021Z,69.98
2023-05-15T05:36:50.339Z,70.53
2023-05-15T05:39:17.603Z,69.39
2023-05-15T05:41:44.984Z,67.83
2023-05-15T05:44:12.257Z,68.79
2023-05-15T05:46:39.562Z,69.21
2023-05-15T05:49:06.652Z,68.66
2023-05-15T05:51:36.890Z,68.86
2023-05-15T05:54:04.097Z,68.59
2023-05-15T05:56:31.467Z,70.59
2023-05-15T05:58:59.721Z,71.10
2023-05-15T06:01:27.774Z,69.50
2023-05-15T06:03:56.108Z,69.57
2023-05-15T06:06:23.531Z,69.83
2023-05-15T06:08:50.577Z,69.44
2023-05-15T06:11:17.869Z,70.40
2023-05-15T06:13:45.156Z,71.70
2023-05-15T06:16:12.065Z,71.44
2023-05-15T06:18:39.008Z,70.61
2023-05-15T06:21:06.344Z,69.84
2023-05-15T06:23:33.214Z,69.90
2023-05-15T06:26:02.003Z,70.77
2023-05-15T06:28:29.012Z,69.80
2023-05-15T06:30:55.932Z,69.64
2023-05-15T06:33:22.979Z,69.34
2023-05-15T06:35:50.279Z,69.14
2023-05-15T06:38:17.173Z,69.36
2023-05-15T06:40:44.274Z,69.85
2023-05-15T06:43:11.316Z,67.97
2023-05-15T06:45:38.518Z,68.88
2023-05-15T06:48:05.849Z,70.11
2023-05-15T06:50:33.031Z,68.73
2023-05-15T06:53:00.648Z,66.99
2023-05-15T06:55:27.551Z,66.03
2023-05-15T06:57:54.984Z,66.91
2023-05-15T07:00:22.264Z,66.19
2023-05-15T07:02:49.374Z,65.13
2023-05-15T07:05:17.162Z,65.21
2023-05-15T07:07:44.077Z,65.84
2023-05-15T07:10:11.456Z,63.93
2023-05-15T07:12:38.608Z,63.61
2023-05-15T07:15:06.331Z,63.31
2023-05-15T07:17:34.108Z,64.44
2023-05-15T07:20:01.584Z,63.45
2023-05-15T07:22:29.335Z,63.45
2023-05-15T07:24:56.550Z,61.64
2023-05-15T07:27:23.921Z,61.38
2023-05-15T07:29:51.048Z,60.92
2023-05-15T07:32:17.902Z,60.36
2023-05-15T07:34:45.303Z,59.18
2023-05-15T07:37:12.146Z,59.60
2023-05-15T07:39:39.612Z,59.05
2023-05-15T07:42:07.071Z,58.34
2023-05-15T07:44:33.951Z,60.39
2023-05-15T07:47:00.949Z,59.12
2023-05-15T07:49:28.061Z,58.98
2023-05-15T07:51:54.961Z,58.75
2023-05-15T07:54:22.055Z,58.08
2023-05-15T07:56:49.531Z,58.07
2023-05-15T07:59:16.988Z,57.04
2023-05-15T08:01:44.109Z,56.64
2023-05-15T08:04:12.312Z,56.67
2023-05-15T08:06:39.943Z,56.98
2023-05-15T08:09:06.838Z,55.48
2023-05-15T08:11:34.005Z,55.87
2023-05-15T08:14:00.828Z,55.60
2023-05-15T08:16:27.892Z,55.23
2023-05-15T08:21:27.020Z,55.27
2023-05-15T08:23:54.717Z,53.87
2023-05-15T08:26:21.820Z,54.65
2023-05-15T08:28:48.852Z,55.07
2023-05-15T08:31:16.409Z,54.52
2023-05-15T08:33:43.751Z,52.79
2023-05-15T08:36:10.633Z,53.56
2023-05-15T08:38:40.778Z,54.02
2023-05-15T08:41:39.317Z,52.56
2023-05-15T08:44:09.449Z,52.39
2023-05-15T08:46:36.913Z,51.67
2023-05-15T08:49:12.343Z,50.72
2023-05-15T08:51:39.674Z,51.94
2023-05-15T08:54:07.078Z,51.12
2023-05-15T08:56:34.231Z,50.83
2023-05-15T08:59:01.449Z,51.56
2023-05-15T09:01:29.157Z,51.72
2023-05-15T09:03:56.279Z,50.95
2023-05-15T09:06:25.009Z,50.47
2023-05-15T09:08:56.280Z,50.57
2023-05-15T09:11:24.659Z,51.62
2023-05-15T09:13:51.742Z,52.01
2023-05-15T09:16:21.844Z,50.95
2023-05-15T09:18:50.155Z,49.86
2023-05-15T09:21:28.670Z,49.91
2023-05-15T09:24:15.355Z,50.71
2023-05-15T09:26:43.250Z,50.35
2023-05-15T09:29:10.506Z,50.12
2023-05-15T09:31:38.002Z,50.66
2023-05-15T09:34:05.994Z,50.61
2023-05-15T09:36:33.140Z,51.04
2023-05-15T09:39:01.382Z,49.80
2023-05-15T09:41:28.636Z,49.86
2023-05-15T09:43:57.108Z,49.48
2023-05-15T09:46:24.478Z,50.12
2023-05-15T09:48:55.676Z,50.71
2023-05-15T09:51:23.085Z,49.78
2023-05-15T09:53:52.262Z,49.67
2023-05-15T09:56:19.449Z,49.85
2023-05-15T09:58:57.861Z,50.25
2023-05-15T10:01:26.256Z,49.30
2023-05-15T10:04:03.791Z,49.02
2023-05-15T10:06:40.635Z,49.83
2023-05-15T10:09:09.697Z,48.48
2023-05-15T10:11:38.811Z,48.88
2023-05-15T10:14:07.084Z,49.98
2023-05-15T10:16:36.329Z,47.21
2023-05-15T10:19:08.792Z,46.73
2023-05-15T10:21:38.390Z,46.89
2023-05-15T10:24:07.179Z,47.20
2023-05-15T10:26:39.801Z,47.30
2023-05-15T10:29:10.416Z,46.76
2023-05-15T10:31:37.639Z,47.18
2023-05-15T10:34:06.067Z,46.98
2023-05-15T10:36:34.896Z,47.84
2023-05-15T10:39:06.481Z,46.61
2023-05-15T10:41:37.527Z,47.15
2023-05-15T10:44:05.104Z,47.22
2023-05-15T10:46:35.452Z,46.64
2023-05-15T10:49:02.658Z,46.83
2023-05-15T10:51:31.782Z,46.24
2023-05-15T10:54:03.917Z,47.20
2023-05-15T10:56:34.781Z,47.75
2023-05-15T10:59:10.201Z,46.87
2023-05-15T11:01:39.446Z,46.54
2023-05-15T11:04:08.199Z,47.33
2023-05-15T11:06:36.414Z,47.85
2023-05-15T11:09:21.568Z,47.55
2023-05-15T11:12:00.370Z,47.81
2023-05-15T11:14:29.118Z,48.28
2023-05-15T11:16:57.642Z,48.62
2023-05-15T11:19:36.528Z,47.43
2023-05-15T11:22:09.505Z,47.98
2023-05-15T11:24:51.325Z,48.05
2023-05-15T11:27:19.802Z,48.19
2023-05-15T11:30:15.175Z,49.08
2023-05-15T11:32:48.562Z,49.32
2023-05-15T11:35:29.232Z,48.82
2023-05-15T11:38:00.009Z,50.10
2023-05-15T11:40:32.564Z,49.15
2023-05-15T11:42:59.435Z,50.11
2023-05-15T11:45:28.541Z,50.05
2023-05-15T11:47:55.780Z,49.37
2023-05-15T11:50:25.100Z,49.87
2023-05-15T11:52:53.175Z,49.84
2023-05-15T11:55:20.750Z,50.18
2023-05-15T11:57:47.988Z,49.50
2023-05-15T12:00:15.781Z,49.41
2023-05-15T12:02:42.852Z,50.28
2023-05-15T12:05:10.616Z,49.88
2023-05-15T12:07:44.964Z,49.24
2023-05-15T12:10:13.219Z,48.99
2023-05-15T12:12:41.730Z,49.82
2023-05-15T12:15:17.186Z,50.42
2023-05-15T12:17:45.961Z,50.47
2023-05-15T12:20:17.703Z,50.44
2023-05-15T12:22:45.240Z,50.03
2023-05-15T12:25:16.578Z,50.34
2023-05-15T12:27:43.969Z,50.12
2023-05-15T12:30:13.761Z,49.38
2023-05-15T12:32:41.279Z,48.76
2023-05-15T12:35:10.118Z,48.07
2023-05-15T12:37:37.337Z,47.94
2023-05-15T12:40:12.817Z,47.75
2023-05-15T12:42:44.685Z,47.89
2023-05-15T12:45:17.165Z,47.79
2023-05-15T12:47:46.591Z,47.56
2023-05-15T12:50:19.058Z,48.10
2023-05-15T12:52:54.453Z,48.10
2023-05-15T12:55:25.971Z,49.27
2023-05-15T12:57:53.858Z,49.72
2023-05-15T13:00:23.035Z,49.58
2023-05-15T13:02:53.539Z,48.88
2023-05-15T13:05:23.540Z,49.95
2023-05-15T13:07:52.053Z,49.77
2023-05-15T13:10:23.947Z,51.05
2023-05-15T13:12:53.637Z,50.58
2023-05-15T13:15:39.034Z,50.87
2023-05-15T13:18:10.742Z,52.02
2023-05-15T13:20:41.366Z,52.39
2023-05-15T13:23:10.331Z,52.57
2023-05-15T13:25:37.730Z,53.02
2023-05-15T13:28:06.256Z,53.04
2023-05-15T13:30:34.676Z,52.53
2023-05-15T13:33:02.882Z,52.92
2023-05-15T13:35:30.195Z,52.89
2023-05-15T13:37:57.504Z,53.29
2023-05-15T13:40:24.835Z,53.30
2023-05-15T13:42:51.908Z,54.30
2023-05-15T13:45:19.168Z,53.79
2023-05-15T13:47:46.136Z,54.13
2023-05-15T13:50:15.657Z,53.15
2023-05-15T13:52:43.649Z,53.08
2023-05-15T13:55:11.500Z,53.46
2023-05-15T13:57:39.415Z,53.49
2023-05-15T14:00:11.704Z,53.20
2023-05-15T14:02:40.188Z,53.53
2023-05-15T14:05:08.488Z,53.77
2023-05-15T14:07:35.435Z,53.83
2023-05-15T14:10:02.578Z,53.39
2023-05-15T14:12:29.730Z,53.84
2023-05-15T14:14:57.331Z,52.79
2023-05-15T14:17:24.375Z,53.45
2023-05-15T14:19:51.534Z,53.77
2023-05-15T14:22:18.635Z,53.04
2023-05-15T14:24:45.562Z,54.27
2023-05-15T14:27:12.640Z,53.21
2023-05-15T14:29:39.918Z,53.05
2023-05-15T14:32:07.601Z,52.90
2023-05-15T14:34:34.515Z,52.54
2023-05-15T14:37:01.785Z,52.59
2023-05-15T14:39:28.717Z,51.88
2023-05-15T14:41:55.871Z,52.50
2023-05-15T14:44:22.708Z,52.02
2023-05-15T14:47:09.168Z,51.49
2023-05-15T14:49:37.765Z,51.63
2023-05-15T14:52:08.068Z,51.84
2023-05-15T14:54:38.216Z,51.91
2023-05-15T14:57:05.453Z,51.62
2023-05-15T14:59:32.399Z,51.69
2023-05-15T15:01:59.693Z,51.82
2023-05-15T15:04:29.599Z,51.80
2023-05-15T15:06:57.073Z,52.17
2023-05-15T15:09:26.407Z,52.21
2023-05-15T15:11:54.636Z,52.95
2023-05-15T15:14:32.789Z,52.35
2023-05-15T15:16:59.806Z,52.71
2023-05-15T15:19:26.679Z,52.70
2023-05-15T15:21:53.679Z,53.10
2023-05-15T15:24:20.914Z,53.54
2023-05-15T15:26:48.066Z,53.06
2023-05-15T15:29:15.085Z,53.29
2023-05-15T15:31:42.242Z,54.35
2023-05-15T15:34:10.247Z,54.67
2023-05-15T15:36:41.643Z,54.33
2023-05-15T15:39:08.881Z,54.91
2023-05-15T15:41:38.435Z,55.00
2023-05-15T15:44:05.659Z,54.45
2023-05-15T15:46:32.697Z,54.17
2023-05-15T15:49:00.312Z,54.50
2023-05-15T15:51:27.249Z,54.26
2023-05-15T15:53:54.278Z,55.01
2023-05-15T15:56:21.425Z,54.59
2023-05-15T15:58:48.540Z,54.01
2023-05-15T16:03:58.262Z,54.62
2023-05-15T16:06:25.309Z,55.07
2023-05-15T16:08:52.368Z,54.72
2023-05-15T16:11:19.427Z,54.81
2023-05-15T16:13:46.563Z,55.49
2023-05-15T16:19:27.020Z,55.50
2023-05-15T16:21:54.004Z,55.42
2023-05-15T16:24:21.100Z,55.19
2023-05-15T16:26:47.885Z,55.78
2023-05-15T16:29:15.050Z,55.86
2023-05-15T16:31:42.140Z,56.10
2023-05-15T16:34:09.317Z,55.56
2023-05-15T16:36:36.246Z,56.20
2023-05-15T16:39:12.766Z,56.41
2023-05-15T16:41:47.083Z,56.93
2023-05-15T16:44:13.967Z,57.23
2023-05-15T16:46:41.054Z,57.84
2023-05-15T16:49:08.566Z,57.88
2023-05-15T16:51:35.544Z,57.92
2023-05-15T16:54:02.705Z,58.52
2023-05-15T16:56:41.998Z,59.25
2023-05-15T16:59:09.150Z,59.23
2023-05-15T17:01:35.927Z,59.62
2023-05-15T17:04:03.342Z,60.47
2023-05-15T17:06:30.605Z,59.87
2023-05-15T17:08:57.625Z,60.07
2023-05-15T17:11:33.610Z,60.01
2023-05-15T17:14:01.066Z,60.03
2023-05-15T17:16:34.305Z,59.23
2023-05-15T17:19:01.415Z,58.92
2023-05-15T17:21:28.269Z,59.14
2023-05-15T17:23:56.364Z,58.37
2023-05-15T17:26:23.949Z,58.71
2023-05-15T17:28:50.749Z,58.30
2023-05-15T17:31:17.822Z,57.99
2023-05-15T17:33:45.996Z,58.35
2023-05-15T17:36:14.657Z,58.19
2023-05-15T17:38:41.434Z,58.05
2023-05-15T17:41:08.358Z,58.09
2023-05-15T17:43:35.703Z,57.29
2023-05-15T17:46:03.833Z,57.46
2023-05-15T17:48:53.723Z,57.38
2023-05-15T17:52:13.921Z,57.74
2023-05-15T17:54:41.178Z,57.04
2023-05-15T17:57:08.256Z,57.61
2023-05-15T17:59:35.120Z,57.65
2023-05-15T18:02:02.414Z,57.13
2023-05-15T18:04:29.284Z,57.29
2023-05-15T18:06:56.205Z,57.68
2023-05-15T18:09:24.312Z,57.65
2023-05-15T18:11:52.034Z,57.42
2023-05-15T18:14:18.964Z,57.28
2023-05-15T18:16:45.900Z,57.28
2023-05-15T18:19:12.958Z,57.14
2023-05-15T18:21:39.981Z,56.91
2023-05-15T18:24:07.230Z,56.76
2023-05-15T18:26:34.373Z,57.20
2023-05-15T18:29:01.278Z,57.55
2023-05-15T18:31:30.277Z,57.61
2023-05-15T18:33:57.079Z,57.37
2023-05-15T18:36:24.255Z,57.71
2023-05-15T18:39:02.629Z,57.89
2023-05-15T18:41:29.817Z,58.20
2023-05-15T18:43:56.788Z,58.04
2023-05-15T18:46:25.814Z,58.20
2023-05-15T18:48:52.728Z,58.77
2023-05-15T18:51:19.737Z,58.31
2023-05-15T18:53:46.579Z,58.10
2023-05-15T18:56:13.475Z,58.25
2023-05-15T18:58:40.421Z,58.80
2023-05-15T19:01:07.368Z,58.76
2023-05-15T19:03:37.274Z,58.32
2023-05-15T19:06:04.265Z,58.60
2023-05-15T19:08:31.078Z,59.10
2023-05-15T19:11:00.642Z,59.08
2023-05-15T19:13:30.718Z,59.78
2023-05-15T19:15:57.825Z,59.47
2023-05-15T19:18:24.702Z,59.86
2023-05-15T19:20:52.195Z,60.15
2023-05-15T19:23:20.744Z,60.10
2023-05-15T19:25:47.882Z,60.41
2023-05-15T19:28:15.364Z,60.88
2023-05-15T19:30:42.706Z,61.04
2023-05-15T19:33:09.908Z,61.15
2023-05-15T19:35:37.611Z,61.00
2023-05-15T19:38:05.140Z,61.16
2023-05-15T19:44:26.537Z,61.81
2023-05-15T19:46:59.798Z,62.16
2023-05-15T19:49:26.755Z,62.36
2023-05-15T19:51:53.718Z,62.68
2023-05-15T19:54:20.498Z,62.49
2023-05-15T19:56:47.412Z,62.64
2023-05-15T19:59:14.209Z,62.94
2023-05-15T20:01:41.708Z,62.98
2023-05-15T20:04:08.767Z,63.11
2023-05-15T20:06:36.396Z,63.21
2023-05-15T20:09:04.673Z,63.35
2023-05-15T20:11:31.749Z,63.33
2023-05-15T20:13:58.813Z,63.59
2023-05-15T20:16:25.710Z,63.71
2023-05-15T20:18:55.381Z,64.01
2023-05-15T20:21:22.451Z,63.89
2023-05-15T20:23:49.476Z,64.04
2023-05-15T20:26:16.418Z,64.04
2023-05-15T20:28:45.176Z,63.80
2023-05-15T20:31:12.369Z,64.15
2023-05-15T20:33:39.747Z,64.36
2023-05-15T20:36:06.798Z,64.40
2023-05-15T20:38:33.932Z,64.57
2023-05-15T20:41:01.201Z,64.58
2023-05-15T20:43:28.026Z,64.46
2023-05-15T20:45:55.215Z,64.12
2023-05-15T20:48:22.305Z,64.38
2023-05-15T20:50:53.172Z,64.32
2023-05-15T20:53:20.373Z,64.86
2023-05-15T20:55:47.314Z,65.44
2023-05-15T20:58:14.231Z,65.98
2023-05-15T21:00:41.227Z,67.08
2023-05-15T21:03:11.897Z,67.43
2023-05-15T21:05:39.108Z,67.42
2023-05-15T21:08:06.044Z,67.10
2023-05-15T21:10:32.952Z,66.01
2023-05-15T21:12:59.752Z,66.09
2023-05-15T21:15:26.738Z,66.01
2023-05-15T21:17:53.758Z,65.96
2023-05-15T21:20:20.694Z,65.85
2023-05-15T21:22:47.535Z,65.89
2023-05-15T21:25:15.880Z,66.05
2023-05-15T21:27:42.906Z,65.97
2023-05-15T21:30:10.476Z,67.94
2023-05-15T21:32:37.316Z,69.08
2023-05-15T21:35:04.605Z,69.12
2023-05-15T21:37:31.472Z,68.72
2023-05-15T21:39:58.381Z,69.32
2023-05-15T21:42:26.480Z,69.21
2023-05-15T21:44:53.534Z,70.18
2023-05-15T21:47:20.504Z,69.96
2023-05-15T21:49:47.533Z,70.53
2023-05-15T21:52:14.397Z,69.27
2023-05-15T21:54:41.500Z,68.89
2023-05-15T21:57:08.431Z,69.32
2023-05-15T21:59:35.683Z,70.30
2023-05-15T22:02:02.483Z,70.58
2023-05-15T22:04:30.352Z,71.39
2023-05-15T22:06:57.551Z,71.58
2023-05-15T22:09:24.522Z,71.38
2023-05-15T22:11:51.768Z,71.66
2023-05-15T22:14:18.914Z,71.60
2023-05-15T22:16:45.814Z,71.22
2023-05-15T22:19:28.486Z,71.45
2023-05-15T22:22:00.350Z,71.93
2023-05-15T22:24:27.361Z,72.10
2023-05-15T22:26:54.311Z,71.84
2023-05-15T22:29:21.448Z,72.11
2023-05-15T22:31:48.774Z,72.25
2023-05-15T22:34:15.798Z,72.83
2023-05-15T22:36:42.643Z,73.95
2023-05-15T22:39:09.585Z,74.98
2023-05-15T22:41:36.638Z,75.16
2023-05-15T22:44:03.604Z,75.87
2023-05-15T22:46:30.746Z,76.21
2023-05-15T22:49:00.520Z,76.84
2023-05-15T22:51:28.521Z,77.54
2023-05-15T22:53:55.806Z,77.21
2023-05-15T22:56:22.777Z,77.32
2023-05-15T22:58:49.913Z,77.41
2023-05-15T23:01:17.118Z,77.77
2023-05-15T23:03:44.399Z,78.33
2023-05-15T23:06:16.701Z,78.60
2023-05-15T23:08:44.081Z,78.82
2023-05-15T23:11:11.229Z,79.64
2023-05-15T23:13:38.057Z,79.64
2023-05-15T23:16:05.929Z,79.34
2023-05-15T23:18:33.121Z,79.73
2023-05-15T23:20:59.982Z,79.94
2023-05-15T23:23:27.024Z,79.77
2023-05-15T23:25:53.840Z,79.71
2023-05-15T23:28:21.324Z,79.57
2023-05-15T23:30:48.371Z,80.48
2023-05-15T23:33:15.468Z,80.12
2023-05-15T23:35:43.328Z,79.39
2023-05-15T23:38:10.403Z,79.32
2023-05-15T23:40:37.335Z,79.67
2023-05-15T23:43:04.442Z,80.22
2023-05-15T23:45:31.212Z,80.70
2023-05-15T23:47:58.505Z,82.12
2023-05-15T23:50:25.652Z,82.98
2023-05-15T23:52:52.646Z,82.90
2023-05-15T23:55:19.654Z,82.65
2023-05-15T23:57:48.436Z,83.23
